Terminal Aerodrome Forecast
Issued by NWS

Home | Current Version | Previous Version | Graphics & Text | Print | Product List | Glossary On
Versions: 1 2 3 4 5 6 7 8 9 10 11 12 13 14 15 16 17 18 19 20 21 22 23 24 25
000
FTUS45 KGGW 172320
TAFOLF
TAF
KOLF 172320Z 1800/1824 08006KT P6SM VCSH OVC060
     FM180300 08011KT 4SM -SN SCT015 OVC045
     FM180700 06020G30KT 1/2SM SN BLSN VV008
     FM181200 04017KT 2SM -SN BLSN OVC010
     FM181500 36010KT P6SM VCSH BKN015=

USA.gov is the U.S. government's official web portal to all federal, state and local government web resources and services.